Time;durP1;ratioP1;P1;durP2;ratioP2;P2;SDS_P1;SDS_P2;PMS_P1;PMS_P2;Temp;Humidity;BMP_temperature;BMP_pressure;BME280_temperature;BME280_humidity;BME280_pressure;Samples;Min_cycle;Max_cycle;Signal;HPM_P1;HPM_P2
2021/09/02 00:01:28;;;;;;;8.43;7.33;;;;;;;14.36;88.67;101625.22;5032679;28;20242;-77
2021/09/02 00:03:56;;;;;;;11.30;7.40;;;;;;;14.38;88.48;101642.69;5036050;28;20208;-76
2021/09/02 00:06:23;;;;;;;10.07;7.57;;;;;;;14.30;88.68;101628.78;5037342;28;20213;-78
2021/09/02 00:08:49;;;;;;;7.40;6.50;;;;;;;14.27;89.04;101610.44;5033900;28;20215;-77
2021/09/02 00:11:16;;;;;;;8.50;6.60;;;;;;;14.22;89.03;101613.16;5029059;28;20234;-76
2021/09/02 00:13:42;;;;;;;8.17;7.37;;;;;;;14.22;89.33;101601.78;5036192;28;20218;-76
2021/09/02 00:16:09;;;;;;;8.57;7.50;;;;;;;14.20;89.57;101606.19;5035950;28;20573;-78
2021/09/02 00:18:35;;;;;;;8.23;7.20;;;;;;;14.17;89.42;101620.25;5038013;28;20219;-76
2021/09/02 00:21:03;;;;;;;8.33;6.73;;;;;;;14.22;89.94;101605.28;5035947;28;20232;-77
2021/09/02 00:23:30;;;;;;;11.70;8.23;;;;;;;14.22;89.58;101610.53;5033805;28;20575;-77
2021/09/02 00:25:56;;;;;;;11.33;7.87;;;;;;;14.24;89.56;101626.25;5039511;28;20217;-77
2021/09/02 00:28:23;;;;;;;10.37;8.27;;;;;;;14.19;89.19;101625.44;5033407;28;20221;-76
2021/09/02 00:30:50;;;;;;;8.30;7.50;;;;;;;14.12;89.45;101621.19;5035129;28;20656;-77
2021/09/02 00:33:17;;;;;;;10.53;8.10;;;;;;;14.07;89.82;101606.38;5037880;28;20674;-77
2021/09/02 00:35:43;;;;;;;10.73;7.53;;;;;;;13.99;90.52;101594.25;5031419;28;20790;-76
2021/09/02 00:38:11;;;;;;;10.10;7.30;;;;;;;14.04;90.85;101588.03;5035565;28;20218;-77
2021/09/02 00:40:38;;;;;;;10.67;7.73;;;;;;;13.94;90.88;101596.09;5035822;28;20238;-77
2021/09/02 00:43:05;;;;;;;9.10;8.03;;;;;;;13.90;91.04;101585.63;5035471;28;20208;-76
2021/09/02 00:45:32;;;;;;;9.70;7.37;;;;;;;13.84;91.43;101583.06;5032887;28;20222;-77
2021/09/02 00:47:59;;;;;;;11.67;8.83;;;;;;;13.82;91.47;101573.50;5033166;28;20204;-77
2021/09/02 00:50:26;;;;;;;10.83;8.33;;;;;;;13.75;91.88;101562.19;5032164;28;20214;-77
2021/09/02 00:52:52;;;;;;;9.30;8.00;;;;;;;13.83;92.43;101552.47;5029710;28;20204;-76
2021/09/02 00:55:20;;;;;;;10.17;8.07;;;;;;;13.81;92.27;101556.88;5035815;28;20227;-76
2021/09/02 00:57:46;;;;;;;9.43;8.53;;;;;;;13.75;92.29;101564.81;5036532;28;20210;-77
2021/09/02 01:00:15;;;;;;;11.27;8.10;;;;;;;13.78;92.77;101549.06;5039009;28;20606;-77
2021/09/02 01:02:44;;;;;;;11.00;8.17;;;;;;;13.90;92.84;101545.38;5031762;28;20207;-78
2021/09/02 01:05:11;;;;;;;9.10;8.20;;;;;;;13.91;92.05;101570.72;5030133;28;20322;-77
2021/09/02 01:07:39;;;;;;;9.90;8.90;;;;;;;13.88;92.09;101579.53;5033097;28;20219;-77
2021/09/02 01:10:07;;;;;;;8.83;8.03;;;;;;;13.86;92.34;101569.94;5040325;28;20209;-78
2021/09/02 01:12:37;;;;;;;9.60;8.70;;;;;;;13.84;92.30;101566.47;5032781;28;20230;-77
2021/09/02 01:15:07;;;;;;;13.77;9.87;;;;;;;13.77;92.68;101559.56;5032588;28;20321;-78
2021/09/02 01:17:34;;;;;;;11.83;9.00;;;;;;;13.75;92.67;101564.81;5038730;28;20210;-77
2021/09/02 01:20:02;;;;;;;11.30;9.80;;;;;;;13.69;92.61;101563.16;5037070;28;20364;-79
2021/09/02 01:22:30;;;;;;;9.17;8.33;;;;;;;13.70;93.17;101554.41;5034858;28;20230;-77
2021/09/02 01:25:01;;;;;;;9.23;8.30;;;;;;;13.81;93.40;101550.75;5038289;28;20231;-77
2021/09/02 01:27:29;;;;;;;12.37;8.87;;;;;;;13.73;93.07;101565.75;5033873;28;20687;-76
2021/09/02 01:29:57;;;;;;;10.60;9.60;;;;;;;13.87;93.43;101561.16;5038512;28;20207;-77
2021/09/02 01:32:24;;;;;;;12.40;9.23;;;;;;;13.86;92.54;101580.44;5033471;28;21385;-78
2021/09/02 01:34:53;;;;;;;9.03;8.03;;;;;;;14.02;92.87;101566.19;5032785;28;20324;-78
2021/09/02 01:37:20;;;;;;;12.00;8.67;;;;;;;14.14;93.23;101565.13;5033572;28;20216;-78
2021/09/02 01:39:48;;;;;;;9.97;8.97;;;;;;;14.17;92.00;101603.59;5035599;28;20393;-77
2021/09/02 01:42:16;;;;;;;11.27;10.17;;;;;;;14.19;90.99;101636.84;5036657;28;20245;-76
2021/09/02 01:44:43;;;;;;;10.23;8.33;;;;;;;14.23;90.77;101656.91;5036029;28;20237;-78
2021/09/02 01:47:24;;;;;;;9.20;8.13;;;;;;;14.16;90.89;101668.38;5039024;28;20662;-78
2021/09/02 01:49:52;;;;;;;10.20;8.50;;;;;;;14.25;90.70;101668.28;5036645;28;20219;-78
2021/09/02 01:52:19;;;;;;;8.87;7.93;;;;;;;14.30;89.97;101697.09;5031608;28;20244;-76
2021/09/02 01:54:46;;;;;;;9.07;8.17;;;;;;;14.40;90.29;101696.06;5035998;28;20231;-79
2021/09/02 01:57:14;;;;;;;10.40;8.63;;;;;;;14.44;89.73;101710.88;5031094;28;20687;-77
2021/09/02 01:59:42;;;;;;;10.97;9.57;;;;;;;14.44;89.57;101724.03;5036957;28;20300;-78
2021/09/02 02:02:09;;;;;;;9.10;8.30;;;;;;;14.49;89.40;101729.22;5029010;28;20235;-78
2021/09/02 02:04:35;;;;;;;9.33;8.23;;;;;;;14.51;88.53;101758.97;5033963;28;20823;-78
2021/09/02 02:07:02;;;;;;;8.83;8.00;;;;;;;14.50;88.32;101768.59;5032955;28;20507;-78
2021/09/02 02:09:28;;;;;;;9.73;8.73;;;;;;;14.48;89.14;101748.50;5036827;28;20226;-78
2021/09/02 02:11:55;;;;;;;12.20;8.50;;;;;;;14.54;89.76;101718.66;5035939;28;20243;-78
2021/09/02 02:14:21;;;;;;;11.37;8.93;;;;;;;14.55;90.15;101692.34;5037732;28;20220;-77
2021/09/02 02:16:49;;;;;;;16.27;9.43;;;;;;;14.49;90.19;101695.06;5033987;28;20226;-77
2021/09/02 02:19:16;;;;;;;14.50;10.47;;;;;;;14.16;90.92;101667.53;5029907;28;20217;-78
2021/09/02 02:21:42;;;;;;;12.77;10.63;;;;;;;14.10;92.04;101634.34;5036242;28;20322;-76
2021/09/02 02:24:09;;;;;;;11.77;10.70;;;;;;;14.01;92.58;101616.09;5032900;28;20201;-78
2021/09/02 02:26:36;;;;;;;12.53;10.40;;;;;;;13.95;93.27;101595.19;5037288;28;20579;-78
2021/09/02 02:29:02;;;;;;;13.67;10.77;;;;;;;14.05;93.33;101591.53;5036612;28;20207;-77
2021/09/02 02:31:29;;;;;;;12.90;9.73;;;;;;;14.12;93.80;101585.31;5031330;28;20760;-78
2021/09/02 02:33:57;;;;;;;13.60;11.43;;;;;;;13.96;93.20;101607.44;5032818;28;20207;-78
2021/09/02 02:36:23;;;;;;;15.93;12.40;;;;;;;13.82;94.35;101584.84;5027013;28;20608;-78
2021/09/02 02:38:50;;;;;;;16.57;11.70;;;;;;;13.77;94.67;101567.44;5036410;28;20230;-77
2021/09/02 02:41:16;;;;;;;14.97;12.00;;;;;;;13.63;95.52;101544.88;5037559;28;20243;-77
2021/09/02 02:43:43;;;;;;;18.00;11.83;;;;;;;13.64;95.78;101528.25;5040559;28;20221;-76
2021/09/02 02:46:09;;;;;;;13.57;11.93;;;;;;;13.66;96.14;101528.25;5035799;28;20215;-77
2021/09/02 02:48:36;;;;;;;13.53;12.13;;;;;;;13.64;96.22;101523.00;5036501;28;20198;-78
2021/09/02 02:51:04;;;;;;;22.00;12.97;;;;;;;13.56;96.48;101519.63;5032279;28;20820;-78
2021/09/02 02:53:30;;;;;;;14.77;12.33;;;;;;;13.61;97.09;101511.69;5032560;28;20584;-77
2021/09/02 02:55:57;;;;;;;16.30;12.37;;;;;;;13.66;96.98;101515.97;5032712;28;20229;-78
2021/09/02 02:58:23;;;;;;;17.80;12.03;;;;;;;13.66;96.77;101512.50;5033617;28;20207;-77
2021/09/02 03:00:50;;;;;;;17.13;12.93;;;;;;;13.70;96.38;101533.41;5035599;28;20235;-76
2021/09/02 03:03:16;;;;;;;16.37;11.90;;;;;;;13.65;96.73;101527.34;5033223;28;20210;-78
2021/09/02 03:05:43;;;;;;;13.53;12.23;;;;;;;13.72;96.72;101524.66;5030745;28;20219;-77
2021/09/02 03:08:10;;;;;;;14.07;12.53;;;;;;;13.63;96.61;101534.38;5035865;28;20667;-78
2021/09/02 03:10:37;;;;;;;18.33;12.17;;;;;;;13.56;97.12;101526.59;5033222;28;20498;-77
2021/09/02 03:13:04;;;;;;;17.27;12.43;;;;;;;13.59;97.15;101527.44;5031159;28;20211;-77
2021/09/02 03:15:30;;;;;;;16.37;12.37;;;;;;;13.61;97.13;101519.56;5039105;28;20231;-79
2021/09/02 03:17:57;;;;;;;18.73;11.93;;;;;;;13.57;97.49;101518.72;5030273;28;20240;-78
2021/09/02 03:20:24;;;;;;;13.67;12.27;;;;;;;13.59;97.33;101514.31;5027841;28;20220;-77
2021/09/02 03:22:51;;;;;;;13.90;12.50;;;;;;;13.56;97.45;101519.63;5030901;28;20213;-78
2021/09/02 03:25:19;;;;;;;15.03;12.83;;;;;;;13.53;97.63;101510.94;5034614;28;20215;-76
2021/09/02 03:27:46;;;;;;;19.20;12.13;;;;;;;13.51;97.67;101521.44;5033146;28;20494;-77
2021/09/02 03:30:13;;;;;;;15.77;13.13;;;;;;;13.52;98.01;101512.69;5037242;28;20203;-77
2021/09/02 03:32:39;;;;;;;17.03;11.97;;;;;;;13.55;97.95;101511.78;5039092;28;20235;-77
2021/09/02 03:35:07;;;;;;;19.33;12.73;;;;;;;13.57;98.22;101518.72;5031583;28;20207;-76
2021/09/02 03:37:34;;;;;;;14.83;12.37;;;;;;;13.57;97.86;101523.97;5034678;28;20224;-76
2021/09/02 03:40:01;;;;;;;13.83;12.63;;;;;;;13.60;97.90;101520.47;5031240;28;20681;-77
2021/09/02 03:42:28;;;;;;;16.27;11.43;;;;;;;13.75;98.31;101524.59;5033448;28;20227;-78
2021/09/02 03:44:55;;;;;;;13.20;11.33;;;;;;;13.91;97.92;101528.72;5031537;28;20220;-76
2021/09/02 03:47:21;;;;;;;13.33;10.93;;;;;;;14.10;97.83;101545.94;5027133;28;20768;-77
2021/09/02 03:49:48;;;;;;;13.47;10.97;;;;;;;14.13;96.31;101588.78;5029651;28;20207;-78
2021/09/02 03:52:14;;;;;;;13.73;11.47;;;;;;;14.20;95.34;101620.19;5035331;28;20242;-77
2021/09/02 03:54:41;;;;;;;14.10;11.33;;;;;;;14.21;94.98;101642.94;5035047;28;20204;-77
2021/09/02 03:57:07;;;;;;;14.67;10.00;;;;;;;14.18;95.10;101648.22;5028944;28;20227;-78
2021/09/02 03:59:35;;;;;;;15.67;9.63;;;;;;;14.34;95.40;101627.84;5039354;28;20227;-77
2021/09/02 04:02:02;;;;;;;11.13;10.03;;;;;;;14.46;94.70;101647.81;5034590;28;20994;-77
2021/09/02 04:04:28;;;;;;;10.50;8.83;;;;;;;14.56;94.54;101652.06;5027124;28;20216;-78
2021/09/02 04:06:54;;;;;;;12.97;9.70;;;;;;;14.70;94.77;101647.44;5034586;28;20215;-77
2021/09/02 04:09:21;;;;;;;8.90;7.47;;;;;;;14.78;93.91;101680.63;5041309;28;20211;-77
2021/09/02 04:11:47;;;;;;;11.03;8.50;;;;;;;14.90;93.51;101701.44;5031634;28;20330;-77
2021/09/02 04:14:14;;;;;;;11.77;9.07;;;;;;;14.93;92.89;101725.06;5030398;28;20219;-78
2021/09/02 04:16:42;;;;;;;12.87;9.00;;;;;;;14.79;92.02;101754.22;5031991;28;20236;-78
2021/09/02 04:19:08;;;;;;;9.13;8.10;;;;;;;14.70;92.03;101755.19;5027665;28;20234;-78
2021/09/02 04:21:35;;;;;;;15.80;9.47;;;;;;;14.74;92.38;101726.25;5031138;28;20232;-79
2021/09/02 04:24:01;;;;;;;12.53;8.97;;;;;;;14.77;92.48;101724.44;5035765;28;20212;-76
2021/09/02 04:26:28;;;;;;;11.73;9.03;;;;;;;14.75;92.10;101749.91;5032728;28;20222;-79
2021/09/02 04:28:54;;;;;;;9.53;8.10;;;;;;;14.89;92.50;101728.66;5035108;28;20584;-78
2021/09/02 04:31:20;;;;;;;7.53;6.87;;;;;;;14.99;92.24;101732.00;5032647;28;20232;-76
2021/09/02 04:33:48;;;;;;;15.03;8.83;;;;;;;15.00;91.88;101750.34;5034229;28;20211;-78
2021/09/02 04:36:15;;;;;;;12.07;8.47;;;;;;;15.04;91.96;101752.06;5029778;28;20233;-78
2021/09/02 04:38:42;;;;;;;12.90;9.90;;;;;;;14.87;90.81;101785.63;5026295;28;20667;-78
2021/09/02 04:41:09;;;;;;;17.77;8.83;;;;;;;14.86;91.44;101776.88;5035768;28;20232;-78
2021/09/02 04:43:35;;;;;;;18.23;9.20;;;;;;;14.91;91.20;101768.94;5031928;28;20216;-78
2021/09/02 04:46:02;;;;;;;9.80;8.70;;;;;;;15.05;92.05;101748.53;5028705;28;20265;-78
2021/09/02 04:48:28;;;;;;;13.63;8.00;;;;;;;15.06;91.44;101765.16;5029348;28;20206;-78
2021/09/02 04:50:56;;;;;;;10.10;8.20;;;;;;;15.07;91.27;101770.41;5033504;28;20226;-77
2021/09/02 04:53:23;;;;;;;9.33;7.30;;;;;;;15.12;90.98;101796.63;5025515;28;20223;-78
2021/09/02 04:55:49;;;;;;;11.27;8.83;;;;;;;15.17;90.91;101788.69;5028395;28;20243;-78
2021/09/02 04:58:16;;;;;;;12.60;7.63;;;;;;;15.25;91.53;101773.63;5035890;28;20210;-78
2021/09/02 05:00:43;;;;;;;9.13;7.90;;;;;;;15.33;91.23;101784.03;5028744;28;20228;-78
2021/09/02 05:03:10;;;;;;;13.10;7.63;;;;;;;15.30;90.87;101800.72;5036326;28;20920;-76
2021/09/02 05:05:37;;;;;;;14.70;8.57;;;;;;;15.21;90.19;101825.41;5041112;28;20216;-78
2021/09/02 05:08:05;;;;;;;13.10;9.30;;;;;;;15.14;89.87;101841.31;5040591;28;20686;-77
2021/09/02 05:10:32;;;;;;;13.40;9.97;;;;;;;14.89;90.85;101808.38;5029036;28;20247;-77
2021/09/02 05:12:59;;;;;;;11.90;9.40;;;;;;;14.97;91.47;101775.84;5027404;28;20468;-77
2021/09/02 05:15:25;;;;;;;12.33;9.10;;;;;;;14.98;91.03;101788.94;5026946;28;20213;-78
2021/09/02 05:17:52;;;;;;;15.17;9.13;;;;;;;15.06;91.15;101781.84;5028774;28;20208;-79
2021/09/02 05:20:18;;;;;;;12.37;9.27;;;;;;;15.12;90.61;101808.91;5027822;28;20209;-77
2021/09/02 05:22:45;;;;;;;11.90;8.40;;;;;;;15.25;91.30;101786.78;5027980;28;20695;-78
2021/09/02 05:25:14;;;;;;;14.20;9.47;;;;;;;15.25;90.48;101813.09;5029917;28;20575;-78
2021/09/02 05:27:41;;;;;;;15.37;9.80;;;;;;;15.29;90.79;101807.75;5027423;28;20656;-78
2021/09/02 05:30:10;;;;;;;12.93;9.53;;;;;;;15.37;90.14;101827.81;5028864;28;20466;-78
2021/09/02 05:32:37;;;;;;;9.13;8.33;;;;;;;15.32;90.34;101834.91;5027516;28;20403;-78
2021/09/02 05:35:04;;;;;;;9.73;8.80;;;;;;;15.12;90.84;101815.03;5029043;28;20205;-78
2021/09/02 05:37:31;;;;;;;10.70;8.60;;;;;;;15.04;91.08;101795.88;5032493;28;20239;-78
2021/09/02 05:39:57;;;;;;;10.30;9.40;;;;;;;14.88;91.58;101779.47;5029226;28;20693;-78
2021/09/02 05:42:25;;;;;;;12.40;9.70;;;;;;;14.56;93.05;101743.13;5035486;28;20226;-78
2021/09/02 05:44:52;;;;;;;12.03;10.80;;;;;;;14.41;94.08;101705.69;5028986;28;20230;-77
2021/09/02 05:47:18;;;;;;;11.70;10.60;;;;;;;14.45;94.81;101678.47;5029861;28;20220;-78
2021/09/02 05:49:45;;;;;;;11.87;10.10;;;;;;;14.45;94.47;101683.75;5028415;28;20664;-78
2021/09/02 05:52:12;;;;;;;9.80;9.00;;;;;;;14.62;94.30;101690.50;5027884;28;20225;-79
2021/09/02 05:54:38;;;;;;;10.37;9.43;;;;;;;14.73;94.01;101704.38;5030530;28;20212;-78
2021/09/02 05:57:05;;;;;;;12.07;10.40;;;;;;;14.57;93.42;101735.28;5027310;28;20309;-78
2021/09/02 05:59:33;;;;;;;15.73;10.67;;;;;;;14.47;93.43;101734.50;5029109;28;20212;-78
2021/09/02 06:01:59;;;;;;;13.37;10.27;;;;;;;14.44;93.80;101724.03;5027971;28;20232;-79
2021/09/02 06:04:26;;;;;;;11.67;10.00;;;;;;;14.48;94.03;101716.97;5028891;28;20216;-78
2021/09/02 06:06:52;;;;;;;14.47;10.70;;;;;;;14.44;94.04;101707.41;5029010;28;20216;-78
2021/09/02 06:09:19;;;;;;;14.13;10.23;;;;;;;14.47;94.45;101702.97;5029808;28;20215;-78
2021/09/02 06:11:45;;;;;;;11.37;10.27;;;;;;;14.48;94.59;101696.81;5026828;28;20235;-78
2021/09/02 06:14:12;;;;;;;15.80;11.37;;;;;;;14.55;94.23;101710.75;5027543;28;20272;-77
2021/09/02 06:16:40;;;;;;;17.20;11.07;;;;;;;14.46;94.11;101711.72;5029158;28;20242;-78
2021/09/02 06:19:06;;;;;;;12.20;10.30;;;;;;;14.52;94.41;101697.63;5027926;28;20211;-78
2021/09/02 06:21:32;;;;;;;15.47;12.37;;;;;;;14.49;93.92;101719.56;5027263;28;20245;-77
2021/09/02 06:23:59;;;;;;;11.53;10.33;;;;;;;14.48;94.09;101724.84;5027735;28;20215;-78
2021/09/02 06:26:25;;;;;;;16.97;10.83;;;;;;;14.43;93.86;101721.41;5025893;28;20213;-78
2021/09/02 06:28:52;;;;;;;13.97;11.27;;;;;;;14.28;94.71;101706.75;5032202;28;20212;-77
2021/09/02 06:31:18;;;;;;;13.90;10.67;;;;;;;14.46;94.82;101700.34;5028909;28;20243;-78
2021/09/02 06:33:46;;;;;;;18.90;11.30;;;;;;;14.46;94.43;101719.59;5028338;28;20228;-77
2021/09/02 06:36:13;;;;;;;13.63;10.27;;;;;;;14.64;93.85;101726.38;5025092;28;20728;-77
2021/09/02 06:38:39;;;;;;;17.83;10.87;;;;;;;14.52;93.96;101734.41;5024541;28;20220;-77
2021/09/02 06:41:06;;;;;;;21.13;12.10;;;;;;;14.43;95.02;101698.66;5028848;28;20239;-77
2021/09/02 06:43:32;;;;;;;20.67;11.97;;;;;;;14.47;94.97;101686.34;5024930;28;20224;-77
2021/09/02 06:45:59;;;;;;;14.07;10.60;;;;;;;14.64;95.18;101686.97;5027920;28;20703;-77
2021/09/02 06:48:25;;;;;;;10.93;9.77;;;;;;;14.88;94.87;101706.75;5031350;28;20217;-77
2021/09/02 06:50:53;;;;;;;11.07;9.07;;;;;;;15.01;94.25;101715.28;5029042;28;20236;-77
2021/09/02 06:53:19;;;;;;;14.73;10.93;;;;;;;14.99;92.77;101761.78;5028894;28;20582;-78
2021/09/02 06:55:46;;;;;;;12.53;10.87;;;;;;;14.96;92.65;101789.88;5026789;28;20221;-77
2021/09/02 06:58:12;;;;;;;13.13;10.00;;;;;;;14.99;92.69;101774.06;5027837;28;20227;-77
2021/09/02 07:00:39;;;;;;;15.10;10.57;;;;;;;15.06;92.45;101773.94;5025868;28;20220;-77
2021/09/02 07:03:05;;;;;;;13.20;11.87;;;;;;;14.77;92.68;101782.28;5024586;28;20213;-76
2021/09/02 07:05:32;;;;;;;17.33;12.27;;;;;;;14.68;93.38;101759.59;5026984;28;20223;-77
2021/09/02 07:07:59;;;;;;;18.30;13.60;;;;;;;14.63;94.08;101729.91;5029297;28;20669;-77
2021/09/02 07:10:26;;;;;;;13.10;11.70;;;;;;;14.81;94.44;101712.13;5024167;28;20305;-77
2021/09/02 07:12:52;;;;;;;14.27;12.07;;;;;;;15.06;94.11;101721.34;5024814;28;20268;-77
2021/09/02 07:15:19;;;;;;;19.73;12.17;;;;;;;15.25;93.33;101756.09;5027164;28;20247;-76
2021/09/02 07:17:45;;;;;;;15.17;10.57;;;;;;;15.43;91.48;101793.50;5025333;28;20219;-76
2021/09/02 07:20:13;;;;;;;18.10;11.37;;;;;;;15.32;91.19;101843.69;5027546;28;20249;-76
2021/09/02 07:22:39;;;;;;;17.90;12.13;;;;;;;15.43;90.88;101840.88;5031573;28;20614;-77
2021/09/02 07:25:08;;;;;;;14.20;12.80;;;;;;;15.56;91.10;101852.94;5026448;28;20258;-77
2021/09/02 07:27:35;;;;;;;15.30;13.07;;;;;;;15.55;89.66;101887.16;5027021;28;20205;-78
2021/09/02 07:30:01;;;;;;;18.33;11.93;;;;;;;15.56;90.44;101857.31;5026942;28;20201;-77
2021/09/02 07:32:27;;;;;;;14.57;11.30;;;;;;;15.54;90.34;101860.00;5028857;28;20278;-77
2021/09/02 07:34:54;;;;;;;15.90;10.80;;;;;;;15.65;90.41;101865.06;5032321;28;20202;-77
2021/09/02 07:37:20;;;;;;;14.03;11.63;;;;;;;15.62;90.59;101867.75;5026337;28;20279;-78
2021/09/02 07:39:47;;;;;;;12.83;11.30;;;;;;;15.74;90.28;101877.22;5027954;28;20208;-76
2021/09/02 07:42:14;;;;;;;17.93;11.33;;;;;;;15.74;89.50;101907.06;5026406;28;20228;-78
2021/09/02 07:44:41;;;;;;;12.70;11.50;;;;;;;15.75;89.83;101892.97;5026378;28;20218;-78
2021/09/02 07:47:07;;;;;;;15.80;11.60;;;;;;;15.85;89.51;101913.00;5029019;28;20253;-78
2021/09/02 07:49:34;;;;;;;15.50;12.67;;;;;;;15.80;89.25;101922.75;5026343;28;20761;-78
2021/09/02 07:52:00;;;;;;;16.70;12.57;;;;;;;15.95;88.95;101929.50;5033677;28;20281;-76
2021/09/02 07:54:26;;;;;;;18.13;13.20;;;;;;;16.13;88.85;101938.84;5035521;28;20209;-82
2021/09/02 07:56:53;;;;;;;14.13;12.63;;;;;;;16.13;87.61;101983.63;5036898;28;20291;-77
2021/09/02 07:59:21;;;;;;;25.27;12.73;;;;;;;16.24;87.43;101984.31;5038417;28;20208;-77
2021/09/02 08:01:47;;;;;;;17.83;13.20;;;;;;;16.32;87.00;102004.41;5032337;28;20299;-78
2021/09/02 08:04:14;;;;;;;23.30;13.67;;;;;;;16.37;85.99;102031.53;5040643;28;20231;-77
2021/09/02 08:06:40;;;;;;;17.20;14.20;;;;;;;16.04;86.30;102037.34;5038326;28;20224;-77
2021/09/02 08:09:07;;;;;;;29.27;14.40;;;;;;;16.13;86.59;102011.75;5038232;28;20218;-77
2021/09/02 08:11:33;;;;;;;16.47;13.30;;;;;;;16.22;86.53;102023.00;5041513;28;20235;-77
2021/09/02 08:14:00;;;;;;;19.80;16.13;;;;;;;16.24;85.43;102046.69;5032746;28;20209;-78
2021/09/02 08:16:28;;;;;;;17.20;14.50;;;;;;;16.10;84.57;102094.34;5033632;28;20214;-78
2021/09/02 08:18:57;;;;;;;19.40;14.77;;;;;;;16.32;85.01;102076.44;5030897;28;20224;-78
2021/09/02 08:21:24;;;;;;;17.70;15.27;;;;;;;16.46;83.98;102111.31;5036114;28;20283;-77
2021/09/02 08:23:51;;;;;;;19.60;15.10;;;;;;;16.70;83.71;102124.97;5034457;28;20217;-79
2021/09/02 08:26:18;;;;;;;17.07;13.93;;;;;;;16.86;83.60;102130.88;5035947;28;20202;-78
2021/09/02 08:28:44;;;;;;;15.67;14.17;;;;;;;16.88;82.30;102169.53;5031324;28;20220;-78
2021/09/02 08:31:11;;;;;;;17.13;13.57;;;;;;;16.83;82.29;102178.44;5037132;28;20589;-79
2021/09/02 08:33:39;;;;;;;15.50;13.13;;;;;;;16.55;82.87;102163.03;5037010;28;20212;-78
2021/09/02 08:36:05;;;;;;;19.40;13.17;;;;;;;16.32;83.19;102131.75;5032334;28;20222;-78
2021/09/02 08:38:32;;;;;;;14.73;13.23;;;;;;;16.41;83.24;102142.19;5044055;28;20238;-77
2021/09/02 08:40:58;;;;;;;14.40;13.10;;;;;;;16.62;84.13;102100.53;5035899;28;20221;-78
2021/09/02 08:43:26;;;;;;;15.00;13.27;;;;;;;16.77;83.82;102110.81;5038592;28;20563;-78
2021/09/02 08:45:52;;;;;;;16.17;12.73;;;;;;;16.92;82.72;102148.38;5037165;28;20212;-78
2021/09/02 08:48:19;;;;;;;14.40;12.73;;;;;;;17.10;81.98;102189.38;5030781;28;20210;-79
2021/09/02 08:50:47;;;;;;;13.80;12.40;;;;;;;17.19;80.82;102220.91;5038287;28;20234;-79
2021/09/02 08:53:13;;;;;;;16.13;12.77;;;;;;;17.15;78.73;102299.25;5033290;28;20209;-79
2021/09/02 08:55:40;;;;;;;16.80;13.67;;;;;;;16.90;78.68;102311.94;5039161;28;20835;-77
2021/09/02 08:58:06;;;;;;;22.97;15.37;;;;;;;16.75;79.14;102281.38;5033862;28;20229;-77
2021/09/02 09:00:33;;;;;;;15.33;13.83;;;;;;;16.61;79.80;102260.50;5039657;28;20228;-77
2021/09/02 09:03:02;;;;;;;17.13;13.60;;;;;;;16.83;80.63;102232.06;5034736;28;20732;-76
2021/09/02 09:05:31;;;;;;;14.63;13.13;;;;;;;17.02;81.66;102182.47;5034691;28;20206;-78
2021/09/02 09:07:59;;;;;;;16.10;13.43;;;;;;;16.96;79.58;102247.66;5040061;28;20585;-78
2021/09/02 09:10:27;;;;;;;17.83;13.43;;;;;;;16.92;80.60;102236.28;5038434;28;20228;-77
2021/09/02 09:12:57;;;;;;;15.63;13.30;;;;;;;16.86;80.68;102233.75;5039416;28;20689;-77
2021/09/02 09:15:26;;;;;;;14.30;12.37;;;;;;;17.00;80.62;102231.75;5038490;28;20275;-78
2021/09/02 09:17:55;;;;;;;16.50;13.07;;;;;;;16.93;79.16;102284.66;5037543;28;20237;-77
2021/09/02 09:20:25;;;;;;;13.33;12.20;;;;;;;17.18;79.66;102256.09;5034582;28;20212;-77
2021/09/02 09:22:57;;;;;;;15.63;13.80;;;;;;;17.38;78.56;102280.38;5037272;28;20206;-79
2021/09/02 09:25:25;;;;;;;13.87;12.37;;;;;;;17.48;77.95;102315.38;5034731;28;20201;-78
2021/09/02 09:27:54;;;;;;;17.07;12.83;;;;;;;17.61;77.46;102327.47;5031579;28;20256;-79
2021/09/02 09:30:22;;;;;;;13.77;12.33;;;;;;;17.77;77.41;102325.44;5034916;28;20299;-79
2021/09/02 09:32:50;;;;;;;22.17;13.00;;;;;;;17.92;76.04;102369.22;5033105;28;20220;-78
2021/09/02 09:35:19;;;;;;;13.67;12.23;;;;;;;18.05;76.22;102365.44;5031256;28;21006;-78
2021/09/02 09:37:47;;;;;;;13.53;11.07;;;;;;;18.13;75.87;102389.06;5031416;28;20590;-78
2021/09/02 09:40:19;;;;;;;14.63;13.17;;;;;;;17.85;74.78;102431.00;5034887;28;20259;-78
2021/09/02 09:43:07;;;;;;;15.73;13.43;;;;;;;17.23;76.16;102386.22;5032739;28;20201;-77
2021/09/02 09:45:36;;;;;;;15.67;13.30;;;;;;;17.05;77.23;102335.47;5027362;28;20214;-77
2021/09/02 09:48:02;;;;;;;15.30;13.80;;;;;;;17.38;77.79;102308.53;5029032;28;20285;-78
2021/09/02 09:50:29;;;;;;;14.27;12.70;;;;;;;17.60;77.21;102336.31;5031924;28;20217;-79
2021/09/02 09:52:55;;;;;;;15.57;13.93;;;;;;;17.44;75.85;102387.63;5037986;28;20675;-78
2021/09/02 09:55:21;;;;;;;17.90;13.57;;;;;;;17.66;76.59;102356.47;5037072;28;20838;-77
2021/09/02 09:57:49;;;;;;;14.57;13.13;;;;;;;17.78;75.52;102384.41;5040507;28;20563;-78
2021/09/02 10:00:19;;;;;;;14.10;12.57;;;;;;;17.84;75.41;102387.88;5031352;28;20672;-78
2021/09/02 10:02:47;;;;;;;14.33;12.90;;;;;;;17.95;76.52;102341.88;5028369;28;20210;-78
2021/09/02 10:05:15;;;;;;;13.03;11.27;;;;;;;18.05;76.25;102351.34;5034443;28;20620;-79
2021/09/02 10:07:43;;;;;;;15.50;14.10;;;;;;;18.14;74.90;102382.03;5027370;28;20201;-78
2021/09/02 10:10:13;;;;;;;13.90;12.50;;;;;;;18.20;75.69;102374.00;5033421;28;20206;-79
2021/09/02 10:12:42;;;;;;;14.03;12.20;;;;;;;18.33;74.79;102398.38;5031230;28;20214;-78
2021/09/02 10:15:10;;;;;;;13.57;12.37;;;;;;;18.42;74.28;102406.16;5031617;28;20209;-79
2021/09/02 10:17:40;;;;;;;15.20;12.27;;;;;;;18.51;74.46;102389.22;5030024;28;20231;-78
2021/09/02 10:20:13;;;;;;;12.80;11.50;;;;;;;18.61;73.73;102422.50;5040141;28;20208;-78
2021/09/02 10:22:39;;;;;;;13.33;11.93;;;;;;;18.73;72.01;102469.00;5029516;28;20217;-79
2021/09/02 10:25:39;;;;;;;12.87;11.57;;;;;;;18.74;72.66;102468.09;5034756;28;20198;-81
2021/09/02 10:28:08;;;;;;;12.10;10.90;;;;;;;18.84;73.06;102438.78;5038392;28;20213;-78
2021/09/02 10:30:41;;;;;;;14.03;12.83;;;;;;;18.27;72.48;102457.53;5032794;28;20250;-78
2021/09/02 10:33:34;;;;;;;15.27;13.13;;;;;;;18.42;73.00;102429.94;5034909;28;20272;-78
2021/09/02 10:36:02;;;;;;;15.37;13.70;;;;;;;18.43;72.38;102440.50;5029828;28;20210;-78
2021/09/02 10:38:39;;;;;;;15.33;13.83;;;;;;;18.45;72.61;102441.34;5030884;28;20288;-78
2021/09/02 10:41:06;;;;;;;15.10;13.70;;;;;;;18.70;72.82;102413.53;5029112;28;20278;-77
2021/09/02 10:43:52;;;;;;;15.20;13.60;;;;;;;18.94;71.64;102465.06;5035381;28;20214;-77
2021/09/02 10:46:42;;;;;;;13.57;12.10;;;;;;;19.16;71.39;102476.06;5028563;28;20207;-78
2021/09/02 10:49:22;;;;;;;17.63;12.53;;;;;;;19.34;71.00;102478.28;5026160;28;21042;-78
2021/09/02 10:51:50;;;;;;;13.27;12.07;;;;;;;19.52;70.23;102508.75;5036549;28;20223;-78
2021/09/02 10:54:23;;;;;;;13.37;12.07;;;;;;;19.67;69.28;102554.38;5033357;28;20218;-78
2021/09/02 10:56:58;;;;;;;14.03;12.43;;;;;;;19.74;68.36;102571.91;5026739;28;20634;-79
2021/09/02 10:59:42;;;;;;;13.87;12.37;;;;;;;19.80;68.68;102569.09;5028784;28;20237;-78
2021/09/02 11:02:09;;;;;;;13.07;11.77;;;;;;;19.94;69.14;102542.25;5027716;28;20235;-79
2021/09/02 11:04:38;;;;;;;13.73;12.50;;;;;;;20.10;68.59;102553.34;5028506;28;20196;-78
2021/09/02 11:07:05;;;;;;;13.13;11.90;;;;;;;20.21;67.97;102577.84;5025551;28;20216;-77
2021/09/02 11:09:33;;;;;;;14.23;12.83;;;;;;;20.29;67.78;102586.47;5027233;28;20208;-78
2021/09/02 11:12:01;;;;;;;13.20;12.00;;;;;;;20.36;67.96;102558.88;5035720;28;20711;-78
2021/09/02 11:14:27;;;;;;;14.13;12.30;;;;;;;20.47;66.96;102603.69;5031597;28;20208;-78
2021/09/02 11:16:54;;;;;;;13.83;11.73;;;;;;;20.55;66.81;102614.97;5025717;28;20350;-77